createdAt,value
2018-12-09T00:01:33.466Z,99.90
2018-12-09T00:04:01.638Z,99.90
2018-12-09T00:06:29.820Z,99.90
2018-12-09T00:08:58.027Z,99.90
2018-12-09T00:11:26.204Z,99.90
2018-12-09T00:13:55.057Z,99.90
2018-12-09T00:16:23.283Z,99.90
2018-12-09T00:18:51.464Z,99.90
2018-12-09T00:21:19.765Z,99.90
2018-12-09T00:23:48.018Z,99.90
2018-12-09T00:26:16.193Z,99.90
2018-12-09T00:28:44.366Z,99.90
2018-12-09T00:31:12.759Z,99.90
2018-12-09T00:33:40.935Z,99.90
2018-12-09T00:36:09.273Z,99.90
2018-12-09T00:38:37.494Z,99.90
2018-12-09T00:41:05.665Z,99.90
2018-12-09T00:43:33.839Z,99.90
2018-12-09T00:46:02.054Z,99.90
2018-12-09T00:48:30.300Z,99.90
2018-12-09T00:50:58.595Z,99.90
2018-12-09T00:53:26.875Z,99.90
2018-12-09T00:55:55.124Z,99.90
2018-12-09T00:58:23.323Z,99.90
2018-12-09T01:00:51.541Z,99.90
2018-12-09T01:03:19.754Z,99.90
2018-12-09T01:05:47.944Z,99.90
2018-12-09T01:08:16.144Z,99.90
2018-12-09T01:10:44.349Z,99.90
2018-12-09T01:13:12.525Z,99.90
2018-12-09T01:15:40.815Z,99.90
2018-12-09T01:18:09.000Z,99.90
2018-12-09T01:20:37.170Z,99.90
2018-12-09T01:23:05.366Z,99.90
2018-12-09T01:25:33.545Z,99.90
2018-12-09T01:28:01.809Z,99.90
2018-12-09T01:30:30.014Z,99.90
2018-12-09T01:32:58.245Z,99.90
2018-12-09T01:35:26.541Z,99.90
2018-12-09T01:37:54.768Z,99.90
2018-12-09T01:40:23.020Z,99.90
2018-12-09T01:42:51.419Z,99.90
2018-12-09T01:45:19.609Z,99.90
2018-12-09T01:47:47.800Z,99.90
2018-12-09T01:50:16.014Z,99.90
2018-12-09T01:52:48.845Z,99.90
2018-12-09T01:55:17.090Z,99.90
2018-12-09T01:57:45.277Z,99.90
2018-12-09T02:00:13.495Z,99.90
2018-12-09T02:02:41.691Z,99.90
2018-12-09T02:05:10.017Z,99.90
2018-12-09T02:07:38.649Z,99.90
2018-12-09T02:10:06.840Z,99.90
2018-12-09T02:12:35.056Z,99.90
2018-12-09T02:15:03.272Z,99.90
2018-12-09T02:17:31.529Z,99.90
2018-12-09T02:19:59.713Z,99.90
2018-12-09T02:22:27.916Z,99.90
2018-12-09T02:24:56.104Z,99.90
2018-12-09T02:27:24.282Z,99.90
2018-12-09T02:29:52.815Z,99.90
2018-12-09T02:32:21.013Z,99.90
2018-12-09T02:34:51.200Z,99.90
2018-12-09T02:37:19.416Z,99.90
2018-12-09T02:39:47.593Z,99.90
2018-12-09T02:42:16.468Z,99.90
2018-12-09T02:44:44.678Z,99.90
2018-12-09T02:47:12.862Z,99.90
2018-12-09T02:49:41.067Z,99.90
2018-12-09T02:52:09.615Z,99.90
2018-12-09T02:54:38.477Z,99.90
2018-12-09T02:57:06.657Z,99.90
2018-12-09T02:59:34.872Z,99.90
2018-12-09T03:02:03.052Z,99.90
2018-12-09T03:04:31.223Z,99.90
2018-12-09T03:06:59.442Z,99.90
2018-12-09T03:09:27.623Z,99.90
2018-12-09T03:11:55.967Z,99.90
2018-12-09T03:14:24.181Z,99.90
2018-12-09T03:16:52.381Z,99.90
2018-12-09T03:19:20.579Z,99.90
2018-12-09T03:21:48.798Z,99.90
2018-12-09T03:24:16.972Z,99.90
2018-12-09T03:26:45.593Z,99.90
2018-12-09T03:29:13.905Z,99.90
2018-12-09T03:31:42.101Z,99.90
2018-12-09T03:34:10.362Z,99.90
2018-12-09T03:36:38.691Z,99.90
2018-12-09T03:39:07.096Z,99.90
2018-12-09T03:41:35.293Z,99.90
2018-12-09T03:44:03.649Z,99.90
2018-12-09T03:46:31.824Z,99.90
2018-12-09T03:49:00.000Z,99.90
2018-12-09T03:51:28.228Z,99.90
2018-12-09T03:53:56.551Z,99.90
2018-12-09T03:56:24.729Z,99.90
2018-12-09T03:58:52.947Z,99.90
2018-12-09T04:01:21.560Z,99.90
2018-12-09T04:03:49.733Z,99.90
2018-12-09T04:06:17.952Z,99.90
2018-12-09T04:08:46.146Z,99.90
2018-12-09T04:11:14.319Z,99.90
2018-12-09T04:13:42.962Z,99.90
2018-12-09T04:18:45.730Z,99.90
2018-12-09T04:21:14.000Z,99.90
2018-12-09T04:23:42.503Z,99.90
2018-12-09T04:26:10.717Z,99.90
2018-12-09T04:28:38.908Z,99.90
2018-12-09T04:31:07.088Z,99.90
2018-12-09T04:33:35.304Z,99.90
2018-12-09T04:36:03.827Z,99.90
2018-12-09T04:38:32.041Z,99.90
2018-12-09T04:41:00.375Z,99.90
2018-12-09T04:43:28.666Z,99.90
2018-12-09T04:45:56.937Z,99.90
2018-12-09T04:48:25.140Z,99.90
2018-12-09T04:50:53.392Z,99.90
2018-12-09T04:53:21.595Z,99.90
2018-12-09T04:55:49.839Z,99.90
2018-12-09T04:58:18.032Z,99.90
2018-12-09T05:00:56.052Z,99.90
2018-12-09T05:03:24.238Z,99.90
2018-12-09T05:05:52.421Z,99.90
2018-12-09T05:08:20.617Z,99.90
2018-12-09T05:10:48.801Z,99.90
2018-12-09T05:13:16.970Z,99.90
2018-12-09T05:15:45.213Z,99.90
2018-12-09T05:18:13.400Z,99.90
2018-12-09T05:20:41.589Z,99.90
2018-12-09T05:23:09.931Z,99.90
2018-12-09T05:25:38.267Z,99.90
2018-12-09T05:28:06.454Z,99.90
2018-12-09T05:30:34.647Z,99.90
2018-12-09T05:33:02.823Z,99.90
2018-12-09T05:35:31.151Z,99.90
2018-12-09T05:37:59.346Z,99.90
2018-12-09T05:40:27.524Z,99.90
2018-12-09T05:42:55.695Z,99.90
2018-12-09T05:45:24.315Z,99.90
2018-12-09T05:47:52.503Z,99.90
2018-12-09T05:50:20.691Z,99.90
2018-12-09T05:52:48.921Z,99.90
2018-12-09T05:55:17.105Z,99.90
2018-12-09T05:57:45.708Z,99.90
2018-12-09T06:00:14.606Z,99.90
2018-12-09T06:02:57.853Z,99.90
2018-12-09T06:05:26.049Z,99.90
2018-12-09T06:07:54.231Z,99.90
2018-12-09T06:10:22.412Z,99.90
2018-12-09T06:12:50.613Z,99.90
2018-12-09T06:15:18.822Z,99.90
2018-12-09T06:17:47.005Z,99.90
2018-12-09T06:20:15.211Z,99.90
2018-12-09T06:22:43.387Z,99.90
2018-12-09T06:25:11.579Z,99.90
2018-12-09T06:27:39.791Z,99.90
2018-12-09T06:30:08.446Z,99.90
2018-12-09T06:32:36.615Z,99.90
2018-12-09T06:35:05.156Z,99.90
2018-12-09T06:37:33.328Z,99.90
2018-12-09T06:40:01.652Z,99.90
2018-12-09T06:42:29.868Z,99.90
2018-12-09T06:44:58.055Z,99.90
2018-12-09T06:47:26.564Z,99.90
2018-12-09T06:49:54.762Z,99.90
2018-12-09T06:52:22.932Z,99.90
2018-12-09T06:54:51.113Z,99.90
2018-12-09T06:57:19.336Z,99.90
2018-12-09T06:59:47.517Z,99.90
2018-12-09T07:02:15.685Z,99.90
2018-12-09T07:04:43.892Z,99.90
2018-12-09T07:07:12.078Z,99.90
2018-12-09T07:09:40.267Z,99.90
2018-12-09T07:12:08.606Z,99.90
2018-12-09T07:14:36.774Z,99.90
2018-12-09T07:17:05.077Z,99.90
2018-12-09T07:19:33.274Z,99.90
2018-12-09T07:22:01.465Z,99.90
2018-12-09T07:24:29.645Z,99.90
2018-12-09T07:26:57.836Z,99.90
2018-12-09T07:29:26.045Z,99.90
2018-12-09T07:31:54.233Z,99.90
2018-12-09T07:34:22.434Z,99.90
2018-12-09T07:36:50.616Z,99.90
2018-12-09T07:39:18.797Z,99.90
2018-12-09T07:41:47.012Z,99.90
2018-12-09T07:44:15.177Z,99.90
2018-12-09T07:46:43.863Z,99.90
2018-12-09T07:49:12.120Z,99.90
2018-12-09T07:51:40.291Z,99.90
2018-12-09T07:54:08.444Z,99.90
2018-12-09T07:56:36.624Z,99.90
2018-12-09T07:59:06.828Z,99.90
2018-12-09T08:01:34.999Z,99.90
2018-12-09T08:04:03.193Z,99.90
2018-12-09T08:06:31.369Z,99.90
2018-12-09T08:08:59.541Z,99.90
2018-12-09T08:11:27.775Z,99.90
2018-12-09T08:13:55.941Z,99.90
2018-12-09T08:16:24.114Z,99.90
2018-12-09T08:18:52.318Z,99.90
2018-12-09T08:21:20.501Z,99.90
2018-12-09T08:23:48.668Z,99.90
2018-12-09T08:26:17.010Z,99.90
2018-12-09T08:28:45.189Z,99.90
2018-12-09T08:31:13.445Z,99.90
2018-12-09T08:33:41.643Z,99.90
2018-12-09T08:36:09.813Z,99.90
2018-12-09T08:38:38.054Z,99.90
2018-12-09T08:41:06.459Z,99.90
2018-12-09T08:43:34.641Z,99.90
2018-12-09T08:46:02.815Z,99.90
2018-12-09T08:48:31.008Z,99.90
2018-12-09T08:50:59.287Z,99.90
2018-12-09T08:53:27.452Z,99.90
2018-12-09T08:55:55.741Z,99.90
2018-12-09T08:58:23.927Z,99.90
2018-12-09T09:00:52.137Z,99.90
2018-12-09T09:03:20.324Z,99.90
2018-12-09T09:05:48.557Z,99.90
2018-12-09T09:08:16.737Z,99.90
2018-12-09T09:10:45.282Z,99.90
2018-12-09T09:13:13.464Z,99.90
2018-12-09T09:15:42.213Z,99.90
2018-12-09T09:18:10.531Z,99.90
2018-12-09T09:20:38.726Z,99.90
2018-12-09T09:23:06.880Z,99.90
2018-12-09T09:25:35.094Z,99.90
2018-12-09T09:28:03.266Z,99.90
2018-12-09T09:30:31.469Z,99.90
2018-12-09T09:32:59.641Z,99.90
2018-12-09T09:35:28.097Z,99.90
2018-12-09T09:37:56.267Z,99.90
2018-12-09T09:40:24.495Z,99.90
2018-12-09T09:42:52.660Z,99.90
2018-12-09T09:45:20.951Z,99.90
2018-12-09T09:47:49.147Z,99.90
2018-12-09T09:50:17.341Z,99.90
2018-12-09T09:52:45.543Z,99.90
2018-12-09T09:55:13.729Z,99.90
2018-12-09T09:57:41.896Z,99.90
2018-12-09T10:00:10.078Z,99.90
2018-12-09T10:02:38.478Z,99.90
2018-12-09T10:05:06.655Z,99.90
2018-12-09T10:07:34.839Z,99.90
2018-12-09T10:10:03.161Z,99.90
2018-12-09T10:12:31.340Z,99.90
2018-12-09T10:14:59.521Z,99.90
2018-12-09T10:17:27.701Z,99.90
2018-12-09T10:19:55.871Z,99.90
2018-12-09T10:22:24.082Z,99.90
2018-12-09T10:24:52.280Z,99.90
2018-12-09T10:27:20.628Z,99.90
2018-12-09T10:29:48.813Z,99.90
2018-12-09T10:32:17.014Z,99.90
2018-12-09T10:34:45.307Z,99.90
2018-12-09T10:37:13.494Z,99.90
2018-12-09T10:39:41.697Z,99.90
2018-12-09T10:42:09.874Z,99.90
2018-12-09T10:44:38.164Z,99.90
2018-12-09T10:47:06.394Z,99.90
2018-12-09T10:49:34.571Z,99.90
2018-12-09T10:52:02.762Z,99.90
2018-12-09T10:54:30.986Z,99.90
2018-12-09T10:56:59.170Z,99.90
2018-12-09T10:59:27.350Z,99.90
2018-12-09T11:01:57.589Z,99.90
2018-12-09T11:04:25.773Z,99.90
2018-12-09T11:06:53.956Z,99.90
2018-12-09T11:09:22.153Z,99.90
2018-12-09T11:11:50.326Z,99.90
2018-12-09T11:14:18.515Z,99.90
2018-12-09T11:16:46.714Z,99.90
2018-12-09T11:19:14.890Z,99.90
2018-12-09T11:21:43.054Z,99.90
2018-12-09T11:24:11.259Z,99.90
2018-12-09T11:26:39.447Z,99.90
2018-12-09T11:29:07.626Z,99.90
2018-12-09T11:31:35.940Z,99.90
2018-12-09T11:34:04.105Z,99.90
2018-12-09T11:36:32.271Z,99.90
2018-12-09T11:39:00.477Z,99.90
2018-12-09T11:41:28.656Z,99.90
2018-12-09T11:43:57.004Z,99.90
2018-12-09T11:46:25.278Z,99.90
2018-12-09T11:48:53.553Z,99.90
2018-12-09T11:51:21.719Z,99.90
2018-12-09T11:53:49.937Z,99.90
2018-12-09T11:56:18.174Z,99.90
2018-12-09T11:58:46.419Z,99.90
2018-12-09T12:01:14.606Z,99.90
2018-12-09T12:03:42.771Z,99.90
2018-12-09T12:06:11.090Z,99.90
2018-12-09T12:08:39.280Z,99.90
2018-12-09T12:11:07.608Z,99.90
2018-12-09T12:13:35.792Z,99.90
2018-12-09T12:16:03.997Z,99.90
2018-12-09T12:18:32.182Z,99.90
2018-12-09T12:21:00.363Z,99.90
2018-12-09T12:23:28.550Z,99.90
2018-12-09T12:25:56.735Z,99.90
2018-12-09T12:28:25.037Z,99.90
2018-12-09T12:30:53.242Z,99.90
2018-12-09T12:33:21.520Z,99.90
2018-12-09T12:35:49.716Z,99.90
2018-12-09T12:38:17.922Z,99.90
2018-12-09T12:40:46.106Z,99.90
2018-12-09T12:43:14.272Z,99.90
2018-12-09T12:45:42.479Z,99.90
2018-12-09T12:48:10.844Z,82.50
2018-12-09T12:50:39.019Z,63.70
2018-12-09T12:53:07.244Z,56.20
2018-12-09T12:55:35.428Z,55.60
2018-12-09T12:58:03.612Z,56.90
2018-12-09T13:00:31.907Z,60.90
2018-12-09T13:03:00.093Z,63.90
2018-12-09T13:05:28.275Z,66.20
2018-12-09T13:07:56.484Z,68.60
2018-12-09T13:10:24.687Z,70.10
2018-12-09T13:12:53.127Z,73.20
2018-12-09T13:15:21.345Z,77.50
2018-12-09T13:17:49.582Z,81.70
2018-12-09T13:20:17.784Z,86.10
2018-12-09T13:22:45.985Z,89.90
2018-12-09T13:25:14.268Z,91.90
2018-12-09T13:27:42.461Z,94.10
2018-12-09T13:30:10.761Z,96.90
2018-12-09T13:32:38.942Z,99.60
2018-12-09T13:35:07.121Z,99.90
2018-12-09T13:37:35.318Z,99.90
2018-12-09T13:40:03.529Z,99.80
2018-12-09T13:42:31.724Z,99.90
2018-12-09T13:44:59.920Z,99.90
2018-12-09T13:47:28.112Z,99.90
2018-12-09T13:49:56.348Z,99.90
2018-12-09T13:52:24.634Z,99.90
2018-12-09T13:54:52.830Z,99.90
2018-12-09T13:57:21.023Z,99.90
2018-12-09T13:59:49.220Z,99.90
2018-12-09T14:02:17.388Z,99.90
2018-12-09T14:04:45.570Z,99.90
2018-12-09T14:07:13.800Z,99.90
2018-12-09T14:09:42.065Z,99.90
2018-12-09T14:12:10.227Z,99.90
2018-12-09T14:14:38.405Z,99.90
2018-12-09T14:17:06.694Z,99.90
2018-12-09T14:19:34.880Z,99.90
2018-12-09T14:22:03.157Z,99.90
2018-12-09T14:24:31.462Z,99.90
2018-12-09T14:26:59.628Z,99.90
2018-12-09T14:29:27.957Z,99.90
2018-12-09T14:31:56.457Z,99.90
2018-12-09T14:34:24.644Z,99.90
2018-12-09T14:36:52.915Z,99.90
2018-12-09T14:39:21.092Z,99.90
2018-12-09T14:41:49.269Z,99.90
2018-12-09T14:44:17.509Z,99.90
2018-12-09T14:46:45.685Z,99.90
2018-12-09T14:49:13.862Z,99.90
2018-12-09T14:51:43.292Z,99.90
2018-12-09T14:54:11.457Z,99.90
2018-12-09T14:56:39.621Z,99.90
2018-12-09T14:59:07.832Z,99.90
2018-12-09T15:01:36.001Z,99.90
2018-12-09T15:04:04.162Z,99.90
2018-12-09T15:06:32.351Z,99.90
2018-12-09T15:09:00.503Z,99.90
2018-12-09T15:11:28.686Z,99.90
2018-12-09T15:13:56.882Z,99.90
2018-12-09T15:16:25.054Z,99.90
2018-12-09T15:18:53.288Z,99.90
2018-12-09T15:21:22.004Z,99.90
2018-12-09T15:23:50.637Z,99.90
2018-12-09T15:26:18.949Z,99.90
2018-12-09T15:28:47.164Z,99.90
2018-12-09T15:31:15.342Z,99.90
2018-12-09T15:33:43.521Z,99.90
2018-12-09T15:36:12.227Z,99.90
2018-12-09T15:38:40.646Z,99.90
2018-12-09T15:41:08.918Z,99.90
2018-12-09T15:43:37.109Z,99.90
2018-12-09T15:46:05.279Z,99.90
2018-12-09T15:48:33.475Z,99.90
2018-12-09T15:53:36.352Z,99.90
2018-12-09T15:56:04.541Z,99.90
2018-12-09T15:58:32.711Z,99.90
2018-12-09T16:01:00.909Z,99.90
2018-12-09T16:03:29.147Z,99.90
2018-12-09T16:05:57.340Z,99.90
2018-12-09T16:08:25.509Z,99.90
2018-12-09T16:10:53.725Z,99.90
2018-12-09T16:13:21.892Z,99.90
2018-12-09T16:15:50.070Z,99.90
2018-12-09T16:18:18.269Z,99.90
2018-12-09T16:20:46.578Z,99.90
2018-12-09T16:23:14.898Z,99.90
2018-12-09T16:25:43.371Z,99.90
2018-12-09T16:28:11.621Z,99.90
2018-12-09T16:30:39.781Z,99.90
2018-12-09T16:33:07.983Z,99.90
2018-12-09T16:35:36.161Z,99.90
2018-12-09T16:38:04.332Z,99.90
2018-12-09T16:40:32.559Z,99.90
2018-12-09T16:43:00.734Z,99.90
2018-12-09T16:45:28.911Z,99.90
2018-12-09T16:47:57.099Z,99.90
2018-12-09T16:50:25.269Z,99.90
2018-12-09T16:52:53.432Z,99.90
2018-12-09T16:55:21.634Z,99.90
2018-12-09T16:57:49.818Z,99.90
2018-12-09T17:00:17.994Z,99.90
2018-12-09T17:02:46.274Z,99.90
2018-12-09T17:05:14.437Z,99.90
2018-12-09T17:07:42.689Z,99.90
2018-12-09T17:10:10.887Z,99.90
2018-12-09T17:12:39.064Z,99.90
2018-12-09T17:15:07.674Z,99.90
2018-12-09T17:17:35.874Z,99.90
2018-12-09T17:20:06.640Z,99.90
2018-12-09T17:22:35.050Z,99.90
2018-12-09T17:25:03.385Z,99.90
2018-12-09T17:27:31.564Z,99.90
2018-12-09T17:29:59.789Z,99.90
2018-12-09T17:32:27.983Z,99.90
2018-12-09T17:34:56.171Z,99.90
2018-12-09T17:37:24.348Z,99.90
2018-12-09T17:39:52.549Z,99.90
2018-12-09T17:42:20.870Z,99.90
2018-12-09T17:44:49.049Z,99.90
2018-12-09T17:47:17.247Z,99.90
2018-12-09T17:49:45.612Z,99.90
2018-12-09T17:52:13.926Z,99.90
2018-12-09T17:54:42.750Z,99.90
2018-12-09T17:57:11.262Z,99.90
2018-12-09T17:59:39.449Z,99.90
2018-12-09T18:02:07.840Z,99.90
2018-12-09T18:04:36.011Z,99.90
2018-12-09T18:07:04.194Z,99.90
2018-12-09T18:09:32.388Z,99.90
2018-12-09T18:12:00.752Z,99.90
2018-12-09T18:14:28.921Z,99.90
2018-12-09T18:16:57.105Z,99.90
2018-12-09T18:19:25.297Z,99.90
2018-12-09T18:21:53.500Z,99.90
2018-12-09T18:24:21.702Z,99.90
2018-12-09T18:26:49.890Z,99.90
2018-12-09T18:29:18.058Z,99.90
2018-12-09T18:31:46.252Z,99.90
2018-12-09T18:34:14.423Z,99.90
2018-12-09T18:36:42.621Z,99.90
2018-12-09T18:39:10.816Z,99.90
2018-12-09T18:41:38.991Z,99.90
2018-12-09T18:44:07.176Z,99.90
2018-12-09T18:46:35.376Z,99.90
2018-12-09T18:49:03.566Z,99.90
2018-12-09T18:51:31.744Z,99.90
2018-12-09T18:53:59.935Z,99.90
2018-12-09T18:56:28.119Z,99.90
2018-12-09T18:58:56.303Z,99.90
2018-12-09T19:01:24.497Z,99.90
2018-12-09T19:03:52.740Z,99.90
2018-12-09T19:06:20.924Z,99.90
2018-12-09T19:08:49.122Z,99.90
2018-12-09T19:11:17.364Z,99.90
2018-12-09T19:13:45.540Z,99.90
2018-12-09T19:16:13.730Z,99.90
2018-12-09T19:18:41.925Z,99.90
2018-12-09T19:21:10.098Z,99.90
2018-12-09T19:23:38.316Z,99.90
2018-12-09T19:26:06.593Z,99.90
2018-12-09T19:28:34.765Z,99.90
2018-12-09T19:31:02.956Z,99.90
2018-12-09T19:33:31.134Z,99.90
2018-12-09T19:35:59.309Z,99.90
2018-12-09T19:38:27.585Z,99.90
2018-12-09T19:40:55.766Z,99.90
2018-12-09T19:43:23.935Z,99.90
2018-12-09T19:45:52.127Z,99.90
2018-12-09T19:48:20.317Z,99.90
2018-12-09T19:50:48.615Z,99.90
2018-12-09T19:53:16.942Z,99.90
2018-12-09T19:55:45.198Z,99.90
2018-12-09T19:58:13.412Z,99.90
2018-12-09T20:00:41.639Z,99.90
2018-12-09T20:03:09.822Z,99.90
2018-12-09T20:05:38.098Z,99.90
2018-12-09T20:08:06.324Z,99.90
2018-12-09T20:10:34.522Z,99.90
2018-12-09T20:13:02.707Z,99.90
2018-12-09T20:15:30.952Z,99.90
2018-12-09T20:17:59.122Z,99.90
2018-12-09T20:20:27.294Z,99.90
2018-12-09T20:22:55.504Z,99.90
2018-12-09T20:25:23.675Z,99.90
2018-12-09T20:27:51.845Z,99.90
2018-12-09T20:30:20.053Z,99.90
2018-12-09T20:32:48.233Z,99.90
2018-12-09T20:35:16.428Z,99.90
2018-12-09T20:37:44.627Z,99.90
2018-12-09T20:40:12.802Z,99.90
2018-12-09T20:42:48.010Z,99.90
2018-12-09T20:45:11.238Z,99.90
2018-12-09T20:47:39.420Z,99.90
2018-12-09T20:50:07.918Z,99.90
2018-12-09T20:52:36.122Z,99.90
2018-12-09T20:55:06.377Z,99.90
2018-12-09T20:57:34.569Z,99.90
2018-12-09T21:00:02.861Z,99.90
2018-12-09T21:02:31.042Z,99.90
2018-12-09T21:04:59.257Z,99.90
2018-12-09T21:07:27.475Z,99.90
2018-12-09T21:09:55.647Z,99.90
2018-12-09T21:12:23.815Z,99.90
2018-12-09T21:14:52.137Z,99.90
2018-12-09T21:17:20.317Z,99.90
2018-12-09T21:19:48.489Z,99.90
2018-12-09T21:22:17.635Z,99.90
2018-12-09T21:24:45.830Z,99.90
2018-12-09T21:27:13.993Z,99.90
2018-12-09T21:29:42.233Z,99.90
2018-12-09T21:32:10.402Z,99.90
2018-12-09T21:34:38.577Z,99.90
2018-12-09T21:37:06.789Z,99.90
2018-12-09T21:39:34.964Z,99.90
2018-12-09T21:42:03.143Z,99.90
2018-12-09T21:44:31.348Z,99.90
2018-12-09T21:46:59.618Z,99.90
2018-12-09T21:49:27.797Z,99.90
2018-12-09T21:51:56.015Z,99.90
2018-12-09T21:54:24.180Z,99.90
2018-12-09T21:56:52.349Z,99.90
2018-12-09T21:59:20.554Z,99.90
2018-12-09T22:01:48.841Z,99.90
2018-12-09T22:04:17.015Z,99.90
2018-12-09T22:06:45.220Z,99.90
2018-12-09T22:09:13.577Z,99.90
2018-12-09T22:11:41.755Z,99.90
2018-12-09T22:14:10.052Z,99.90
2018-12-09T22:16:38.230Z,99.90
2018-12-09T22:19:06.443Z,99.90
2018-12-09T22:21:34.863Z,99.90
2018-12-09T22:24:03.041Z,99.90
2018-12-09T22:26:31.287Z,99.90
2018-12-09T22:28:59.586Z,99.90
2018-12-09T22:31:27.783Z,99.90
2018-12-09T22:33:55.957Z,99.90
2018-12-09T22:36:24.525Z,99.90
2018-12-09T22:38:52.715Z,99.90
2018-12-09T22:41:20.970Z,99.90
2018-12-09T22:43:49.164Z,99.90
2018-12-09T22:46:17.421Z,99.90
2018-12-09T22:48:45.604Z,99.90
2018-12-09T22:51:13.967Z,99.90
2018-12-09T22:53:42.171Z,99.90
2018-12-09T22:56:10.352Z,99.90
2018-12-09T22:58:38.637Z,99.90
2018-12-09T23:01:12.441Z,99.90
2018-12-09T23:03:40.654Z,99.90
2018-12-09T23:06:08.853Z,99.90
2018-12-09T23:08:37.038Z,99.90
2018-12-09T23:11:05.241Z,99.90
2018-12-09T23:13:33.417Z,99.90
2018-12-09T23:16:01.595Z,99.90
2018-12-09T23:18:29.807Z,99.90
2018-12-09T23:20:57.982Z,99.90
2018-12-09T23:23:26.157Z,99.90
2018-12-09T23:25:54.354Z,99.90
2018-12-09T23:28:22.535Z,99.90
2018-12-09T23:30:50.724Z,99.90
2018-12-09T23:33:18.939Z,99.90
2018-12-09T23:35:47.121Z,99.90
2018-12-09T23:38:15.301Z,99.90
2018-12-09T23:40:43.596Z,99.90
2018-12-09T23:45:46.293Z,99.90
2018-12-09T23:48:14.472Z,99.90
2018-12-09T23:50:42.658Z,99.90
2018-12-09T23:53:10.939Z,99.90
2018-12-09T23:55:39.148Z,99.90
2018-12-09T23:58:07.340Z,99.90
